METAR & TAF locaux

METAR
2019/05/25 15:00 LFST 251500Z AUTO 35012KT CAVOK 23/07 Q1015 TEMPO SHRA FEW050CB BKN080
2019/05/25 15:20 EDSB 251520Z 08004KT 040V100 CAVOK 20/12 Q1015
2019/05/25 15:00 LFGA 251500Z AUTO 01004KT 310V060 CAVOK 20/12 Q1015
TAF
2019/05/25 12:21 TAF LFST 251101Z 2512/2612 34009KT 9999 FEW055 SCT090 TEMPO 2512/2519 SHRA FEW050CB BKN080 PROB30 TEMPO 2512/2515 34013G25KT TSRA
2019/05/25 12:27 TAF EDSB 251100Z 2512/2612 01005KT CAVOK PROB40 TEMPO 2512/2519 34015G25KT TSRA BKN030CB BECMG 2519/2521 VRB03KT
www.noaa.gov

Ne pas utiliser pour préparer ou effectuer un vol: Utilisez la documentation officielle disponible sur aviation.meteo.fr (Aéroweb)


"Le soleil du matin ne dure pas forcément toute la journée."

Animation satellite IR

Meteociel.fr

"Derrière chaque nuage se cache le ciel bleu."

Prévisions 7 jours


Meteoblue.com

"Quand les crapauds chantent, le beau temps s'avance !"

Vigilance météo

vigilance-meteo.fr

"Tout nuage n'enfante pas une tempête."
William Shakespeare